createdAt,value
2022-12-09T00:02:31.034Z,0.90
2022-12-09T00:07:37.558Z,1.00
2022-12-09T00:12:40.903Z,-2.70
2022-12-09T00:17:44.262Z,1.20
2022-12-09T00:22:49.329Z,1.10
2022-12-09T00:27:52.805Z,1.10
2022-12-09T00:32:56.373Z,1.10
2022-12-09T00:38:01.099Z,1.00
2022-12-09T00:43:04.642Z,1.00
2022-12-09T00:48:08.283Z,1.20
2022-12-09T00:53:13.107Z,0.90
2022-12-09T00:58:16.594Z,0.80
2022-12-09T01:03:20.283Z,0.70
2022-12-09T01:08:25.214Z,0.70
2022-12-09T01:13:28.667Z,0.60
2022-12-09T01:18:32.072Z,0.60
2022-12-09T01:23:37.124Z,0.70
2022-12-09T01:28:41.611Z,0.90
2022-12-09T01:33:45.321Z,0.90
2022-12-09T01:38:50.234Z,1.00
2022-12-09T01:44:14.849Z,0.80
2022-12-09T01:49:22.219Z,0.80
2022-12-09T01:54:27.837Z,0.70
2022-12-09T01:59:32.136Z,0.60
2022-12-09T02:04:46.196Z,0.60
2022-12-09T02:15:22.582Z,0.70
2022-12-09T02:20:32.459Z,0.60
2022-12-09T02:25:43.880Z,0.60
2022-12-09T02:30:56.568Z,1.00
2022-12-09T02:36:05.062Z,0.70
2022-12-09T02:41:14.957Z,0.50
2022-12-09T02:46:22.972Z,0.60
2022-12-09T02:51:31.075Z,0.80
2022-12-09T02:56:35.772Z,0.70
2022-12-09T03:01:47.480Z,0.50
2022-12-09T03:06:53.770Z,0.70
2022-12-09T03:12:00.708Z,0.60
2022-12-09T03:17:11.397Z,0.40
2022-12-09T03:27:26.545Z,0.40
2022-12-09T03:32:32.077Z,0.40
2022-12-09T03:37:39.584Z,0.40
2022-12-09T03:42:47.981Z,0.50
2022-12-09T03:47:52.039Z,0.00
2022-12-09T03:53:04.453Z,0.00
2022-12-09T04:03:15.623Z,0.30
2022-12-09T04:08:20.749Z,0.30
2022-12-09T04:13:24.268Z,0.30
2022-12-09T04:18:28.104Z,0.20
2022-12-09T04:23:35.585Z,0.30
2022-12-09T04:28:41.238Z,0.20
2022-12-09T04:33:45.800Z,-0.10
2022-12-09T04:38:50.585Z,0.00
2022-12-09T04:43:54.793Z,0.30
2022-12-09T04:48:58.321Z,0.10
2022-12-09T04:54:03.142Z,0.10
2022-12-09T04:59:07.347Z,0.10
2022-12-09T05:04:11.234Z,0.70
2022-12-09T05:09:16.269Z,0.30
2022-12-09T05:14:20.339Z,0.30
2022-12-09T05:19:24.346Z,0.40
2022-12-09T05:24:29.550Z,0.40
2022-12-09T05:29:33.099Z,0.30
2022-12-09T05:34:37.333Z,0.30
2022-12-09T05:39:42.471Z,0.30
2022-12-09T05:44:46.575Z,0.20
2022-12-09T05:49:50.270Z,0.30
2022-12-09T05:54:55.384Z,0.40
2022-12-09T05:59:58.996Z,0.50
2022-12-09T06:05:03.091Z,1.20
2022-12-09T06:10:10.088Z,0.30
2022-12-09T06:15:20.277Z,0.30
2022-12-09T06:20:25.154Z,0.30
2022-12-09T06:25:30.317Z,0.20
2022-12-09T06:30:33.792Z,0.20
2022-12-09T06:35:37.959Z,0.20
2022-12-09T06:40:44.787Z,0.20
2022-12-09T06:45:48.525Z,0.20
2022-12-09T06:50:52.704Z,0.10
2022-12-09T06:55:57.928Z,0.10
2022-12-09T07:01:07.112Z,0.20
2022-12-09T07:06:20.314Z,0.40
2022-12-09T07:11:25.716Z,0.30
2022-12-09T07:16:30.117Z,0.70
2022-12-09T07:21:34.676Z,0.30
2022-12-09T07:26:40.040Z,0.40
2022-12-09T07:31:43.746Z,0.50
2022-12-09T07:36:47.437Z,0.50
2022-12-09T07:41:56.473Z,0.60
2022-12-09T07:47:04.825Z,0.80
2022-12-09T07:52:08.382Z,0.60
2022-12-09T07:57:13.152Z,0.50
2022-12-09T08:02:17.070Z,0.60
2022-12-09T08:07:20.888Z,1.00
2022-12-09T08:12:26.106Z,0.80
2022-12-09T08:17:31.006Z,1.20
2022-12-09T08:22:36.346Z,1.40
2022-12-09T08:27:41.843Z,1.50
2022-12-09T08:32:46.300Z,1.50
2022-12-09T08:37:49.697Z,1.50
2022-12-09T08:42:54.906Z,1.40
2022-12-09T08:47:58.758Z,1.50
2022-12-09T08:53:02.537Z,1.50
2022-12-09T08:58:07.271Z,2.00
2022-12-09T09:03:10.764Z,2.20
2022-12-09T09:08:15.115Z,2.20
2022-12-09T09:13:20.140Z,2.10
2022-12-09T09:18:23.608Z,1.20
2022-12-09T09:23:26.974Z,1.20
2022-12-09T09:28:32.190Z,1.60
2022-12-09T09:33:36.396Z,1.80
2022-12-09T09:38:40.391Z,1.80
2022-12-09T09:43:45.833Z,1.80
2022-12-09T09:48:49.830Z,2.00
2022-12-09T09:53:55.489Z,1.60
2022-12-09T09:59:17.034Z,2.20
2022-12-09T10:04:29.915Z,2.50
2022-12-09T10:09:39.647Z,2.70
2022-12-09T10:14:54.156Z,2.20
2022-12-09T10:20:06.287Z,2.60
2022-12-09T10:25:19.587Z,3.10
2022-12-09T10:30:27.085Z,2.40
2022-12-09T10:35:34.903Z,2.80
2022-12-09T10:40:50.480Z,3.10
2022-12-09T10:46:18.330Z,3.20
2022-12-09T10:51:25.885Z,3.40
2022-12-09T10:56:32.323Z,3.30
2022-12-09T11:01:49.710Z,2.90
2022-12-09T11:06:59.504Z,3.20
2022-12-09T11:12:07.559Z,3.20
2022-12-09T11:17:18.673Z,3.20
2022-12-09T11:22:24.006Z,2.90
2022-12-09T11:27:30.293Z,2.80
2022-12-09T11:32:39.339Z,3.10
2022-12-09T11:37:42.824Z,3.10
2022-12-09T11:42:51.724Z,3.10
2022-12-09T11:53:30.841Z,3.30
2022-12-09T11:58:42.127Z,3.80
2022-12-09T12:03:52.116Z,3.50
2022-12-09T12:09:02.203Z,3.70
2022-12-09T12:14:13.937Z,3.70
2022-12-09T12:19:26.453Z,3.80
2022-12-09T12:25:00.377Z,3.60
2022-12-09T12:30:06.740Z,3.60
2022-12-09T12:35:35.058Z,3.40
2022-12-09T12:40:44.401Z,3.40
2022-12-09T12:46:17.410Z,3.10
2022-12-09T12:51:32.986Z,3.30
2022-12-09T12:56:41.509Z,3.60
2022-12-09T13:01:52.893Z,3.10
2022-12-09T13:07:06.925Z,3.20
2022-12-09T13:12:17.138Z,3.10
2022-12-09T13:17:23.239Z,3.60
2022-12-09T13:22:33.848Z,3.40
2022-12-09T13:27:42.859Z,3.20
2022-12-09T13:33:13.253Z,3.10
2022-12-09T13:38:34.197Z,0.20
2022-12-09T13:43:41.513Z,3.10
2022-12-09T13:48:48.057Z,3.40
2022-12-09T13:54:01.195Z,3.10
2022-12-09T13:59:38.017Z,3.00
2022-12-09T14:04:49.661Z,3.20
2022-12-09T14:09:57.303Z,3.10
2022-12-09T14:15:02.597Z,3.00
2022-12-09T14:20:20.375Z,2.90
2022-12-09T14:26:01.271Z,2.50
2022-12-09T14:31:09.022Z,2.30
2022-12-09T14:36:26.677Z,2.30
2022-12-09T14:41:36.044Z,2.20
2022-12-09T14:46:43.010Z,2.30
2022-12-09T14:51:49.857Z,2.20
2022-12-09T15:02:01.142Z,2.10
2022-12-09T15:07:11.905Z,2.00
2022-12-09T15:12:15.267Z,2.00
2022-12-09T15:17:26.793Z,4.70
2022-12-09T15:22:32.541Z,2.10
2022-12-09T15:27:35.896Z,2.20
2022-12-09T15:32:41.230Z,2.00
2022-12-09T15:37:45.312Z,2.10
2022-12-09T15:42:51.036Z,2.20
2022-12-09T15:48:00.514Z,2.10
2022-12-09T15:53:06.357Z,2.20
2022-12-09T15:58:13.399Z,2.30
2022-12-09T16:03:19.822Z,2.50
2022-12-09T16:08:24.005Z,3.00
2022-12-09T16:13:27.305Z,2.50
2022-12-09T16:18:49.798Z,2.40
2022-12-09T16:23:56.123Z,2.20
2022-12-09T16:29:02.704Z,2.20
2022-12-09T16:34:07.498Z,2.20
2022-12-09T16:39:44.113Z,2.30
2022-12-09T16:44:47.551Z,2.20
2022-12-09T16:49:52.835Z,2.10
2022-12-09T16:54:56.190Z,2.00
2022-12-09T16:59:59.610Z,2.00
2022-12-09T17:05:06.140Z,2.20
2022-12-09T17:10:10.610Z,2.20
2022-12-09T17:15:16.325Z,2.00
2022-12-09T17:20:21.647Z,2.10
2022-12-09T17:25:25.035Z,2.10
2022-12-09T17:30:28.323Z,2.10
2022-12-09T17:35:34.132Z,2.30
2022-12-09T17:40:37.686Z,2.10
2022-12-09T17:45:42.446Z,2.10
2022-12-09T17:50:47.319Z,2.00
2022-12-09T17:55:50.877Z,1.80
2022-12-09T18:00:54.697Z,1.80
2022-12-09T18:06:00.503Z,2.20
2022-12-09T18:11:04.801Z,2.30
2022-12-09T18:16:10.100Z,1.90
2022-12-09T18:21:16.217Z,2.10
2022-12-09T18:26:23.455Z,1.80
2022-12-09T18:31:29.321Z,2.00
2022-12-09T18:36:34.044Z,1.70
2022-12-09T18:41:37.412Z,1.70
2022-12-09T18:46:42.466Z,1.90
2022-12-09T18:51:48.317Z,1.70
2022-12-09T18:56:53.398Z,1.80
2022-12-09T19:01:56.740Z,1.70
2022-12-09T19:07:02.425Z,1.60
2022-12-09T19:12:44.809Z,1.60
2022-12-09T19:17:32.629Z,1.60
2022-12-09T19:22:37.417Z,1.50
2022-12-09T19:27:40.798Z,1.60
2022-12-09T19:32:53.252Z,1.60
2022-12-09T19:38:01.437Z,1.50
2022-12-09T19:43:05.112Z,1.50
2022-12-09T19:48:09.056Z,1.50
2022-12-09T19:53:14.837Z,1.40
2022-12-09T19:58:19.727Z,1.40
2022-12-09T20:03:23.105Z,1.60
2022-12-09T20:08:27.911Z,1.50
2022-12-09T20:13:32.179Z,1.60
2022-12-09T20:18:36.025Z,1.50
2022-12-09T20:23:44.847Z,1.40
2022-12-09T20:28:50.012Z,1.40
2022-12-09T20:33:55.486Z,1.50
2022-12-09T20:39:11.362Z,1.50
2022-12-09T20:44:16.272Z,1.50
2022-12-09T20:49:25.437Z,1.50
2022-12-09T20:54:30.372Z,1.40
2022-12-09T20:59:33.904Z,1.40
2022-12-09T21:04:37.259Z,1.40
2022-12-09T21:09:42.013Z,1.30
2022-12-09T21:14:45.983Z,1.20
2022-12-09T21:19:49.335Z,1.20
2022-12-09T21:24:54.331Z,1.60
2022-12-09T21:29:57.898Z,1.30
2022-12-09T21:35:02.226Z,1.30
2022-12-09T21:40:08.090Z,1.30
2022-12-09T21:45:11.702Z,1.20
2022-12-09T21:50:15.084Z,1.20
2022-12-09T21:55:20.343Z,1.20
2022-12-09T22:00:24.487Z,1.20
2022-12-09T22:05:28.020Z,1.20
2022-12-09T22:10:32.860Z,1.30
2022-12-09T22:15:37.671Z,1.20
2022-12-09T22:26:07.755Z,1.30
2022-12-09T22:31:11.532Z,1.20
2022-12-09T22:36:15.763Z,1.20
2022-12-09T22:41:22.429Z,1.70
2022-12-09T22:46:27.887Z,1.20
2022-12-09T22:51:33.405Z,1.20
2022-12-09T22:56:39.628Z,1.20
2022-12-09T23:01:45.508Z,1.30
2022-12-09T23:06:50.138Z,1.30
2022-12-09T23:11:55.223Z,1.40
2022-12-09T23:16:59.730Z,1.40
2022-12-09T23:22:03.544Z,1.40
2022-12-09T23:27:08.299Z,1.60
2022-12-09T23:32:11.823Z,1.70
2022-12-09T23:37:15.451Z,1.70
2022-12-09T23:42:21.597Z,1.60
2022-12-09T23:47:25.041Z,1.60
2022-12-09T23:52:28.480Z,1.50
2022-12-09T23:57:33.292Z,1.50
